createdAt,value
2022-08-24T00:00:40.771Z,53.42
2022-08-24T00:03:11.859Z,54.08
2022-08-24T00:05:39.740Z,53.71
2022-08-24T00:08:07.343Z,53.97
2022-08-24T00:10:36.322Z,54.13
2022-08-24T00:13:04.416Z,54.23
2022-08-24T00:15:32.192Z,54.20
2022-08-24T00:17:59.829Z,54.82
2022-08-24T00:20:27.616Z,54.26
2022-08-24T00:22:55.282Z,54.60
2022-08-24T00:25:22.960Z,55.02
2022-08-24T00:27:52.041Z,55.30
2022-08-24T00:30:21.738Z,55.19
2022-08-24T00:32:50.361Z,54.90
2022-08-24T00:35:19.791Z,55.11
2022-08-24T00:37:49.017Z,54.66
2022-08-24T00:40:19.651Z,54.98
2022-08-24T00:42:47.899Z,55.38
2022-08-24T00:45:18.170Z,55.21
2022-08-24T00:47:50.080Z,55.54
2022-08-24T00:50:23.024Z,55.25
2022-08-24T00:52:53.848Z,55.72
2022-08-24T00:55:27.402Z,55.74
2022-08-24T00:57:59.203Z,56.05
2022-08-24T01:00:32.511Z,55.88
2022-08-24T01:03:04.426Z,55.97
2022-08-24T01:05:33.427Z,56.07
2022-08-24T01:08:02.589Z,56.13
2022-08-24T01:10:34.622Z,55.95
2022-08-24T01:13:05.982Z,56.25
2022-08-24T01:15:38.073Z,56.24
2022-08-24T01:18:26.002Z,56.05
2022-08-24T01:20:58.038Z,56.42
2022-08-24T01:23:37.676Z,57.20
2022-08-24T01:26:06.544Z,56.92
2022-08-24T01:28:36.941Z,57.21
2022-08-24T01:31:05.302Z,56.72
2022-08-24T01:33:33.841Z,56.88
2022-08-24T01:36:05.745Z,57.31
2022-08-24T01:38:35.773Z,57.45
2022-08-24T01:41:05.354Z,56.96
2022-08-24T01:43:34.404Z,57.74
2022-08-24T01:46:06.412Z,57.42
2022-08-24T01:48:34.374Z,57.51
2022-08-24T01:51:02.018Z,57.67
2022-08-24T01:53:30.446Z,57.96
2022-08-24T01:55:59.474Z,57.77
2022-08-24T01:58:27.135Z,57.97
2022-08-24T02:00:54.992Z,58.03
2022-08-24T02:03:29.578Z,58.57
2022-08-24T02:05:59.458Z,58.90
2022-08-24T02:08:27.569Z,59.60
2022-08-24T02:10:56.766Z,59.84
2022-08-24T02:13:28.684Z,60.18
2022-08-24T02:15:56.534Z,60.65
2022-08-24T02:18:24.762Z,61.10
2022-08-24T02:20:53.190Z,61.06
2022-08-24T02:23:22.371Z,61.43
2022-08-24T02:25:50.757Z,60.46
2022-08-24T02:28:20.177Z,60.35
2022-08-24T02:30:50.368Z,59.56
2022-08-24T02:33:18.405Z,59.42
2022-08-24T02:35:46.195Z,58.70
2022-08-24T02:38:13.854Z,58.66
2022-08-24T02:40:41.696Z,58.92
2022-08-24T02:43:10.347Z,59.03
2022-08-24T02:45:40.627Z,59.88
2022-08-24T02:48:10.435Z,59.57
2022-08-24T02:50:39.900Z,60.07
2022-08-24T02:53:07.836Z,59.48
2022-08-24T02:55:36.062Z,59.83
2022-08-24T02:58:03.815Z,60.63
2022-08-24T03:00:31.555Z,60.63
2022-08-24T03:02:59.457Z,61.05
2022-08-24T03:05:30.003Z,61.58
2022-08-24T03:07:58.043Z,61.44
2022-08-24T03:10:25.912Z,61.94
2022-08-24T03:12:53.841Z,61.99
2022-08-24T03:15:27.034Z,61.38
2022-08-24T03:17:54.789Z,61.85
2022-08-24T03:20:23.943Z,61.76
2022-08-24T03:22:53.649Z,62.37
2022-08-24T03:25:24.479Z,62.08
2022-08-24T03:27:53.070Z,62.19
2022-08-24T03:30:22.056Z,61.92
2022-08-24T03:32:51.288Z,61.87
2022-08-24T03:35:21.734Z,61.56
2022-08-24T03:37:50.752Z,61.74
2022-08-24T03:40:22.333Z,61.74
2022-08-24T03:42:51.032Z,61.27
2022-08-24T03:45:19.716Z,60.85
2022-08-24T03:47:47.464Z,60.75
2022-08-24T03:50:15.601Z,60.61
2022-08-24T03:52:43.199Z,61.06
2022-08-24T03:55:12.095Z,61.46
2022-08-24T03:57:41.564Z,60.92
2022-08-24T04:00:12.418Z,61.77
2022-08-24T04:02:44.232Z,61.99
2022-08-24T04:05:17.136Z,62.38
2022-08-24T04:07:52.065Z,62.33
2022-08-24T04:10:20.024Z,61.80
2022-08-24T04:12:49.505Z,61.64
2022-08-24T04:15:17.536Z,61.97
2022-08-24T04:17:45.737Z,61.86
2022-08-24T04:20:13.958Z,62.17
2022-08-24T04:22:41.803Z,61.80
2022-08-24T04:25:10.973Z,63.00
2022-08-24T04:27:41.363Z,62.33
2022-08-24T04:30:14.373Z,62.94
2022-08-24T04:33:13.714Z,62.37
2022-08-24T04:35:45.301Z,62.10
2022-08-24T04:38:13.588Z,63.21
2022-08-24T04:40:48.949Z,62.88
2022-08-24T04:43:19.832Z,62.78
2022-08-24T04:45:51.288Z,62.03
2022-08-24T04:48:19.951Z,62.17
2022-08-24T04:50:47.898Z,62.58
2022-08-24T04:53:16.037Z,62.25
2022-08-24T04:55:51.031Z,62.38
2022-08-24T04:58:20.146Z,62.48
2022-08-24T05:00:49.239Z,62.44
2022-08-24T05:03:17.015Z,62.32
2022-08-24T05:05:49.469Z,63.03
2022-08-24T05:08:19.269Z,63.17
2022-08-24T05:10:50.470Z,63.37
2022-08-24T05:13:18.291Z,63.26
2022-08-24T05:15:48.310Z,63.12
2022-08-24T05:18:19.212Z,62.96
2022-08-24T05:20:48.581Z,63.05
2022-08-24T05:23:16.393Z,62.91
2022-08-24T05:25:44.097Z,62.80
2022-08-24T05:28:13.004Z,62.02
2022-08-24T05:30:42.911Z,61.82
2022-08-24T05:33:11.502Z,61.09
2022-08-24T05:35:43.874Z,61.29
2022-08-24T05:38:12.440Z,61.66
2022-08-24T05:40:41.202Z,61.05
2022-08-24T05:43:09.601Z,61.20
2022-08-24T05:45:37.848Z,60.65
2022-08-24T05:48:05.632Z,60.99
2022-08-24T05:50:55.740Z,60.37
2022-08-24T05:53:25.725Z,60.22
2022-08-24T05:55:54.279Z,60.28
2022-08-24T05:58:31.017Z,59.75
2022-08-24T06:01:07.553Z,60.29
2022-08-24T06:03:35.610Z,60.05
2022-08-24T06:06:07.393Z,60.61
2022-08-24T06:08:39.373Z,60.33
2022-08-24T06:11:09.530Z,60.02
2022-08-24T06:13:39.115Z,59.75
2022-08-24T06:16:21.112Z,59.73
2022-08-24T06:18:51.061Z,59.44
2022-08-24T06:21:22.955Z,59.46
2022-08-24T06:23:52.068Z,59.13
2022-08-24T06:26:39.716Z,58.73
2022-08-24T06:29:08.475Z,58.57
2022-08-24T06:31:45.501Z,59.37
2022-08-24T06:34:16.861Z,60.24
2022-08-24T06:36:47.600Z,59.64
2022-08-24T06:39:15.543Z,61.80
2022-08-24T06:41:46.155Z,61.16
2022-08-24T06:44:20.701Z,60.89
2022-08-24T06:46:56.160Z,61.00
2022-08-24T06:49:24.700Z,59.91
2022-08-24T06:51:53.729Z,60.05
2022-08-24T06:54:21.824Z,59.60
2022-08-24T06:56:50.014Z,59.22
2022-08-24T06:59:18.475Z,59.14
2022-08-24T07:01:46.642Z,58.85
2022-08-24T07:04:15.192Z,58.03
2022-08-24T07:07:10.013Z,58.16
2022-08-24T07:09:38.795Z,58.81
2022-08-24T07:12:07.152Z,58.60
2022-08-24T07:14:35.568Z,57.73
2022-08-24T07:17:03.789Z,57.71
2022-08-24T07:19:32.813Z,57.63
2022-08-24T07:22:01.501Z,58.29
2022-08-24T07:24:30.516Z,57.99
2022-08-24T07:26:58.189Z,58.28
2022-08-24T07:32:14.795Z,57.59
2022-08-24T07:34:43.688Z,57.23
2022-08-24T07:37:11.663Z,57.44
2022-08-24T07:39:44.128Z,57.34
2022-08-24T07:42:18.397Z,57.21
2022-08-24T07:44:49.815Z,57.27
2022-08-24T07:47:37.467Z,57.09
2022-08-24T07:50:12.087Z,57.09
2022-08-24T07:52:41.535Z,56.65
2022-08-24T07:55:12.539Z,56.47
2022-08-24T07:57:41.484Z,56.36
2022-08-24T08:00:13.438Z,55.69
2022-08-24T08:02:50.307Z,54.74
2022-08-24T08:05:22.552Z,53.75
2022-08-24T08:07:53.332Z,52.74
2022-08-24T08:10:23.344Z,53.07
2022-08-24T08:12:52.976Z,51.51
2022-08-24T08:15:21.100Z,50.74
2022-08-24T08:17:57.544Z,50.31
2022-08-24T08:20:26.009Z,49.09
2022-08-24T08:23:11.199Z,49.76
2022-08-24T08:25:42.449Z,50.10
2022-08-24T08:28:26.277Z,49.79
2022-08-24T08:31:02.037Z,49.87
2022-08-24T08:33:31.800Z,49.36
2022-08-24T08:36:05.699Z,49.23
2022-08-24T08:38:34.999Z,49.31
2022-08-24T08:41:25.899Z,48.05
2022-08-24T08:44:17.956Z,47.34
2022-08-24T08:46:58.685Z,46.74
2022-08-24T08:49:56.404Z,46.72
2022-08-24T08:52:37.257Z,47.45
2022-08-24T08:55:21.875Z,46.70
2022-08-24T08:58:06.703Z,44.79
2022-08-24T09:00:56.073Z,42.31
2022-08-24T09:03:45.477Z,42.44
2022-08-24T09:06:49.324Z,41.01
2022-08-24T09:09:37.387Z,41.32
2022-08-24T09:12:17.544Z,41.03
2022-08-24T09:15:10.811Z,40.54
2022-08-24T09:17:50.433Z,40.33
2022-08-24T09:20:28.892Z,40.30
2022-08-24T09:23:09.044Z,40.20
2022-08-24T09:25:46.895Z,39.90
2022-08-24T09:28:31.080Z,39.06
2022-08-24T09:31:27.914Z,39.51
2022-08-24T09:34:08.457Z,38.14
2022-08-24T09:36:50.055Z,37.86
2022-08-24T09:39:37.859Z,36.85
2022-08-24T09:42:36.023Z,36.27
2022-08-24T09:45:35.258Z,35.96
2022-08-24T09:48:46.336Z,34.87
2022-08-24T09:51:51.508Z,34.25
2022-08-24T09:54:43.697Z,33.49
2022-08-24T09:57:44.289Z,32.96
2022-08-24T10:00:20.856Z,32.31
2022-08-24T10:03:08.148Z,31.29
2022-08-24T10:05:57.243Z,31.18
2022-08-24T10:08:40.875Z,30.67
2022-08-24T10:11:35.658Z,31.94
2022-08-24T10:14:12.004Z,30.80
2022-08-24T10:16:50.655Z,30.83
2022-08-24T10:19:41.226Z,30.47
2022-08-24T10:22:20.685Z,30.37
2022-08-24T10:25:03.771Z,30.61
2022-08-24T10:27:44.493Z,29.99
2022-08-24T10:30:38.736Z,29.25
2022-08-24T10:33:16.579Z,27.57
2022-08-24T10:35:59.688Z,28.34
2022-08-24T10:38:53.009Z,28.17
2022-08-24T10:41:53.292Z,27.23
2022-08-24T10:44:44.872Z,27.75
2022-08-24T10:47:17.326Z,27.35
2022-08-24T10:50:21.188Z,26.69
2022-08-24T10:53:26.332Z,27.31
2022-08-24T10:56:14.297Z,27.74
2022-08-24T10:58:59.104Z,25.89
2022-08-24T11:01:30.792Z,25.50
2022-08-24T11:04:05.766Z,24.62
2022-08-24T11:06:35.944Z,24.60
2022-08-24T11:09:08.735Z,24.71
2022-08-24T11:11:40.887Z,23.54
2022-08-24T11:14:23.181Z,24.47
2022-08-24T11:16:55.773Z,23.56
2022-08-24T11:19:33.069Z,24.16
2022-08-24T11:22:02.840Z,24.29
2022-08-24T11:24:43.507Z,24.97
2022-08-24T11:27:30.416Z,24.51
2022-08-24T11:30:02.753Z,25.45
2022-08-24T11:32:34.665Z,24.99
2022-08-24T11:35:05.676Z,24.80
2022-08-24T11:37:35.623Z,24.60
2022-08-24T11:40:05.034Z,24.48
2022-08-24T11:42:44.589Z,24.21
2022-08-24T11:45:17.272Z,23.75
2022-08-24T11:47:50.573Z,23.45
2022-08-24T11:50:30.428Z,23.91
2022-08-24T11:53:12.380Z,23.18
2022-08-24T11:55:51.734Z,22.92
2022-08-24T11:58:46.475Z,22.40
2022-08-24T12:01:19.896Z,22.35
2022-08-24T12:04:01.949Z,21.28
2022-08-24T12:06:44.207Z,21.98
2022-08-24T12:09:25.610Z,21.45
2022-08-24T12:12:00.200Z,21.12
2022-08-24T12:14:38.440Z,21.27
2022-08-24T12:17:14.783Z,20.38
2022-08-24T12:19:49.931Z,20.02
2022-08-24T12:22:20.774Z,20.83
2022-08-24T12:24:51.435Z,20.26
2022-08-24T12:27:23.165Z,20.48
2022-08-24T12:30:00.483Z,20.30
2022-08-24T12:32:37.509Z,19.62
2022-08-24T12:35:10.104Z,19.89
2022-08-24T12:37:43.367Z,19.69
2022-08-24T12:40:22.543Z,19.49
2022-08-24T12:42:54.660Z,19.41
2022-08-24T12:45:25.320Z,18.26
2022-08-24T12:48:01.373Z,18.12
2022-08-24T12:50:34.305Z,18.30
2022-08-24T12:53:21.800Z,17.67
2022-08-24T12:56:20.285Z,17.64
2022-08-24T12:58:57.941Z,17.80
2022-08-24T13:01:33.441Z,17.64
2022-08-24T13:04:13.354Z,17.16
2022-08-24T13:06:46.542Z,16.81
2022-08-24T13:09:32.119Z,15.66
2022-08-24T13:12:24.291Z,14.88
2022-08-24T13:15:26.119Z,14.62
2022-08-24T13:18:02.703Z,14.46
2022-08-24T13:20:54.870Z,13.95
2022-08-24T13:23:24.040Z,13.68
2022-08-24T13:25:58.937Z,13.49
2022-08-24T13:28:40.671Z,12.63
2022-08-24T13:31:22.990Z,12.78
2022-08-24T13:33:53.406Z,12.14
2022-08-24T13:37:03.750Z,12.87
2022-08-24T13:39:45.485Z,13.44
2022-08-24T13:42:21.571Z,12.80
2022-08-24T13:45:01.015Z,12.41
2022-08-24T13:47:35.268Z,12.48
2022-08-24T13:50:11.027Z,12.36
2022-08-24T13:52:49.081Z,11.77
2022-08-24T13:55:32.540Z,11.61
2022-08-24T13:58:22.455Z,12.25
2022-08-24T14:01:01.472Z,11.75
2022-08-24T14:03:57.663Z,12.53
2022-08-24T14:06:36.050Z,11.98
2022-08-24T14:09:17.821Z,12.18
2022-08-24T14:12:11.114Z,12.38
2022-08-24T14:15:08.478Z,12.43
2022-08-24T14:17:55.106Z,12.00
2022-08-24T14:20:51.353Z,10.86
2022-08-24T14:23:29.934Z,11.44
2022-08-24T14:26:27.287Z,10.53
2022-08-24T14:28:55.164Z,10.89
2022-08-24T14:31:28.136Z,10.89
2022-08-24T14:34:10.972Z,12.27
2022-08-24T14:36:57.664Z,12.67
2022-08-24T14:39:35.679Z,12.14
2022-08-24T14:42:16.826Z,11.84
2022-08-24T14:45:03.493Z,10.36
2022-08-24T14:47:50.872Z,10.56
2022-08-24T14:50:25.072Z,10.16
2022-08-24T14:53:08.131Z,9.86
2022-08-24T14:55:43.148Z,10.51
2022-08-24T14:58:21.538Z,10.68
2022-08-24T15:01:29.472Z,10.25
2022-08-24T15:04:15.600Z,9.82
2022-08-24T15:06:58.839Z,9.59
2022-08-24T15:09:35.270Z,9.02
2022-08-24T15:12:14.264Z,9.51
2022-08-24T15:14:48.490Z,10.26
2022-08-24T15:17:23.603Z,11.09
2022-08-24T15:20:03.241Z,10.41
2022-08-24T15:22:44.002Z,10.03
2022-08-24T15:25:19.885Z,10.15
2022-08-24T15:27:54.325Z,9.35
2022-08-24T15:30:27.113Z,9.39
2022-08-24T15:33:04.108Z,9.39
2022-08-24T15:35:34.280Z,9.61
2022-08-24T15:38:18.786Z,9.69
2022-08-24T15:40:50.372Z,9.92
2022-08-24T15:43:18.080Z,10.98
2022-08-24T15:45:48.429Z,10.65
2022-08-24T15:48:18.599Z,9.52
2022-08-24T15:50:49.431Z,9.17
2022-08-24T15:53:31.991Z,8.92
2022-08-24T15:56:27.071Z,8.92
2022-08-24T15:58:55.105Z,8.94
2022-08-24T16:01:43.469Z,8.28
2022-08-24T16:04:35.440Z,8.00
2022-08-24T16:07:03.151Z,8.11
2022-08-24T16:09:37.546Z,8.13
2022-08-24T16:12:13.986Z,8.19
2022-08-24T16:14:47.077Z,8.18
2022-08-24T16:17:30.541Z,8.04
2022-08-24T16:20:01.092Z,8.05
2022-08-24T16:22:32.892Z,8.54
2022-08-24T16:25:29.367Z,8.49
2022-08-24T16:28:05.388Z,9.12
2022-08-24T16:30:45.200Z,8.67
2022-08-24T16:33:43.077Z,8.57
2022-08-24T16:36:14.265Z,9.12
2022-08-24T16:38:47.242Z,8.90
2022-08-24T16:41:19.011Z,9.17
2022-08-24T16:43:48.665Z,9.31
2022-08-24T16:46:21.907Z,10.07
2022-08-24T16:48:49.911Z,10.17
2022-08-24T16:51:17.533Z,9.82
2022-08-24T16:53:45.147Z,10.52
2022-08-24T16:56:16.489Z,9.61
2022-08-24T16:58:44.348Z,9.61
2022-08-24T17:01:13.647Z,9.64
2022-08-24T17:03:42.534Z,9.89
2022-08-24T17:06:12.213Z,10.36
2022-08-24T17:08:40.696Z,10.45
2022-08-24T17:11:08.527Z,10.36
2022-08-24T17:13:51.587Z,11.13
2022-08-24T17:16:22.098Z,11.63
2022-08-24T17:18:50.029Z,12.37
2022-08-24T17:21:18.844Z,12.56
2022-08-24T17:23:46.569Z,13.34
2022-08-24T17:26:20.279Z,13.83
2022-08-24T17:28:51.836Z,13.64
2022-08-24T17:31:21.035Z,14.30
2022-08-24T17:33:49.077Z,14.93
2022-08-24T17:36:17.636Z,15.72
2022-08-24T17:38:51.695Z,16.13
2022-08-24T17:41:24.328Z,16.79
2022-08-24T17:43:52.576Z,17.14
2022-08-24T17:46:22.727Z,17.21
2022-08-24T17:48:51.053Z,17.72
2022-08-24T17:51:19.269Z,18.40
2022-08-24T17:53:46.855Z,18.11
2022-08-24T17:56:16.492Z,18.45
2022-08-24T17:59:02.476Z,18.64
2022-08-24T18:01:32.141Z,23.27
2022-08-24T18:03:59.767Z,23.17
2022-08-24T18:06:28.707Z,23.79
2022-08-24T18:08:58.210Z,24.21
2022-08-24T18:11:26.464Z,24.26
2022-08-24T18:13:55.247Z,24.44
2022-08-24T18:16:27.384Z,25.04
2022-08-24T18:18:56.736Z,25.62
2022-08-24T18:21:24.696Z,26.53
2022-08-24T18:23:52.529Z,27.39
2022-08-24T18:26:27.662Z,28.35
2022-08-24T18:29:00.412Z,28.83
2022-08-24T18:31:31.565Z,29.97
2022-08-24T18:34:00.594Z,30.28
2022-08-24T18:36:28.720Z,30.35
2022-08-24T18:38:56.403Z,30.49
2022-08-24T18:41:27.443Z,31.19
2022-08-24T18:43:55.263Z,32.27
2022-08-24T18:46:23.131Z,32.86
2022-08-24T18:48:50.724Z,32.88
2022-08-24T18:51:20.935Z,33.30
2022-08-24T18:53:48.720Z,33.57
2022-08-24T18:56:16.448Z,34.22
2022-08-24T18:58:44.077Z,34.32
2022-08-24T19:01:12.956Z,35.02
2022-08-24T19:03:40.701Z,35.42
2022-08-24T19:06:08.552Z,35.49
2022-08-24T19:08:37.512Z,35.95
2022-08-24T19:11:06.762Z,36.57
2022-08-24T19:13:35.013Z,37.04
2022-08-24T19:16:02.640Z,37.18
2022-08-24T19:18:30.305Z,37.60
2022-08-24T19:20:58.944Z,38.48
2022-08-24T19:23:31.100Z,38.55
2022-08-24T19:26:01.758Z,39.06
2022-08-24T19:28:29.957Z,39.21
2022-08-24T19:31:00.685Z,39.16
2022-08-24T19:33:32.720Z,39.46
2022-08-24T19:36:00.538Z,39.72
2022-08-24T19:38:28.271Z,40.22
2022-08-24T19:40:58.077Z,40.79
2022-08-24T19:43:28.143Z,41.05
2022-08-24T19:46:02.273Z,41.58
2022-08-24T19:48:31.520Z,41.58
2022-08-24T19:51:01.087Z,42.11
2022-08-24T19:53:31.136Z,42.53
2022-08-24T19:55:58.767Z,42.81
2022-08-24T19:58:36.877Z,43.16
2022-08-24T20:01:06.740Z,43.46
2022-08-24T20:03:34.442Z,44.02
2022-08-24T20:06:02.292Z,44.16
2022-08-24T20:08:29.979Z,44.90
2022-08-24T20:11:00.281Z,45.06
2022-08-24T20:13:30.475Z,45.38
2022-08-24T20:15:58.468Z,45.26
2022-08-24T20:18:31.258Z,45.81
2022-08-24T20:20:59.384Z,46.54
2022-08-24T20:23:27.485Z,46.43
2022-08-24T20:25:57.614Z,46.81
2022-08-24T20:28:36.032Z,47.25
2022-08-24T20:31:07.101Z,47.22
2022-08-24T20:33:35.063Z,47.76
2022-08-24T20:36:03.118Z,47.35
2022-08-24T20:38:32.037Z,47.08
2022-08-24T20:41:00.864Z,47.47
2022-08-24T20:43:28.733Z,47.96
2022-08-24T20:45:57.076Z,48.22
2022-08-24T20:48:30.215Z,48.30
2022-08-24T20:50:58.000Z,48.96
2022-08-24T20:53:26.627Z,48.92
2022-08-24T20:55:56.840Z,49.51
2022-08-24T20:58:24.671Z,49.44
2022-08-24T21:00:52.340Z,49.57
2022-08-24T21:03:20.158Z,50.05
2022-08-24T21:05:52.196Z,49.87
2022-08-24T21:08:20.161Z,50.19
2022-08-24T21:10:48.327Z,50.64
2022-08-24T21:13:15.984Z,50.96
2022-08-24T21:15:43.723Z,51.26
2022-08-24T21:18:11.729Z,51.43
2022-08-24T21:20:44.699Z,50.98
2022-08-24T21:23:30.341Z,51.64
2022-08-24T21:25:58.560Z,51.41
2022-08-24T21:28:26.377Z,51.55
2022-08-24T21:30:54.029Z,52.35
2022-08-24T21:33:35.786Z,52.14
2022-08-24T21:36:03.672Z,52.57
2022-08-24T21:38:32.663Z,53.08
2022-08-24T21:41:00.597Z,53.08
2022-08-24T21:43:28.281Z,53.34
2022-08-24T21:45:56.465Z,53.29
2022-08-24T21:48:24.495Z,53.74
2022-08-24T21:50:52.110Z,53.87
2022-08-24T21:53:19.690Z,54.28
2022-08-24T21:55:50.056Z,54.45
2022-08-24T21:58:18.183Z,54.67
2022-08-24T22:00:45.885Z,54.64
2022-08-24T22:03:13.548Z,54.73
2022-08-24T22:05:41.312Z,54.90
2022-08-24T22:08:08.952Z,54.83
2022-08-24T22:10:36.558Z,54.93
2022-08-24T22:13:06.074Z,55.25
2022-08-24T22:15:34.197Z,55.10
2022-08-24T22:18:01.836Z,55.38
2022-08-24T22:20:29.547Z,55.09
2022-08-24T22:22:58.436Z,55.10
2022-08-24T22:25:26.231Z,55.21
2022-08-24T22:27:53.948Z,55.26
2022-08-24T22:30:23.000Z,55.20
2022-08-24T22:32:50.719Z,55.41
2022-08-24T22:35:18.360Z,55.64
2022-08-24T22:37:46.061Z,55.26
2022-08-24T22:40:14.048Z,55.90
2022-08-24T22:42:42.179Z,55.94
2022-08-24T22:45:11.908Z,56.03
2022-08-24T22:47:40.843Z,56.31
2022-08-24T22:50:10.892Z,56.61
2022-08-24T22:52:38.573Z,56.76
2022-08-24T22:55:06.920Z,56.65
2022-08-24T22:57:34.697Z,56.97
2022-08-24T23:00:02.926Z,56.96
2022-08-24T23:02:30.651Z,57.35
2022-08-24T23:04:59.656Z,57.32
2022-08-24T23:07:27.322Z,57.16
2022-08-24T23:09:55.096Z,57.10
2022-08-24T23:12:25.973Z,57.43
2022-08-24T23:14:53.867Z,57.57
2022-08-24T23:17:22.662Z,57.37
2022-08-24T23:20:04.893Z,57.67
2022-08-24T23:22:35.876Z,57.46
2022-08-24T23:25:05.853Z,57.73
2022-08-24T23:27:38.559Z,57.81
2022-08-24T23:30:09.369Z,57.90
2022-08-24T23:32:37.105Z,58.38
2022-08-24T23:35:05.949Z,58.35
2022-08-24T23:37:34.965Z,59.08
2022-08-24T23:40:02.930Z,58.99
2022-08-24T23:42:30.586Z,59.12
2022-08-24T23:44:58.398Z,59.66
2022-08-24T23:47:27.742Z,59.67
2022-08-24T23:49:55.432Z,60.13
2022-08-24T23:52:26.207Z,60.21
2022-08-24T23:54:55.977Z,60.30
2022-08-24T23:57:34.750Z,60.16
